sensor_id;sensor_type;location;lat;lon;timestamp;temperature;humidity
6988;DHT22;3534;49.960;8.018;2023-04-03T00:00:20;9.10;99.90
6988;DHT22;3534;49.960;8.018;2023-04-03T00:02:46;9.10;99.90
6988;DHT22;3534;49.960;8.018;2023-04-03T00:05:14;9.10;99.90
6988;DHT22;3534;49.960;8.018;2023-04-03T00:07:41;9.10;99.90
6988;DHT22;3534;49.960;8.018;2023-04-03T00:10:09;9.10;99.90
6988;DHT22;3534;49.960;8.018;2023-04-03T00:12:35;9.10;99.90
6988;DHT22;3534;49.960;8.018;2023-04-03T00:15:02;9.10;99.90
6988;DHT22;3534;49.960;8.018;2023-04-03T00:17:29;9.00;99.90
6988;DHT22;3534;49.960;8.018;2023-04-03T00:19:56;9.00;99.90
6988;DHT22;3534;49.960;8.018;2023-04-03T00:22:24;9.00;99.90
6988;DHT22;3534;49.960;8.018;2023-04-03T00:24:51;9.00;99.90
6988;DHT22;3534;49.960;8.018;2023-04-03T00:27:18;9.00;99.90
6988;DHT22;3534;49.960;8.018;2023-04-03T00:29:45;9.00;99.90
6988;DHT22;3534;49.960;8.018;2023-04-03T00:32:12;9.00;99.90
6988;DHT22;3534;49.960;8.018;2023-04-03T00:34:38;9.00;99.90
6988;DHT22;3534;49.960;8.018;2023-04-03T00:37:05;9.10;99.90
6988;DHT22;3534;49.960;8.018;2023-04-03T00:39:33;9.10;99.90
6988;DHT22;3534;49.960;8.018;2023-04-03T00:42:00;9.20;99.90
6988;DHT22;3534;49.960;8.018;2023-04-03T00:47:27;9.20;99.90
6988;DHT22;3534;49.960;8.018;2023-04-03T00:49:54;9.20;99.90
6988;DHT22;3534;49.960;8.018;2023-04-03T00:52:25;9.10;99.90
6988;DHT22;3534;49.960;8.018;2023-04-03T00:54:57;9.10;99.90
6988;DHT22;3534;49.960;8.018;2023-04-03T00:57:25;9.10;99.90
6988;DHT22;3534;49.960;8.018;2023-04-03T00:59:55;9.10;99.90
6988;DHT22;3534;49.960;8.018;2023-04-03T01:02:23;9.10;99.90
6988;DHT22;3534;49.960;8.018;2023-04-03T01:04:50;9.10;99.90
6988;DHT22;3534;49.960;8.018;2023-04-03T01:07:19;9.10;99.90
6988;DHT22;3534;49.960;8.018;2023-04-03T01:09:47;9.20;99.90
6988;DHT22;3534;49.960;8.018;2023-04-03T01:12:18;9.10;99.90
6988;DHT22;3534;49.960;8.018;2023-04-03T01:14:47;9.20;99.90
6988;DHT22;3534;49.960;8.018;2023-04-03T01:17:34;9.20;99.90
6988;DHT22;3534;49.960;8.018;2023-04-03T01:20:44;9.20;99.90
6988;DHT22;3534;49.960;8.018;2023-04-03T01:23:27;9.20;99.90
6988;DHT22;3534;49.960;8.018;2023-04-03T01:25:57;9.20;99.90
6988;DHT22;3534;49.960;8.018;2023-04-03T01:28:27;9.20;99.90
6988;DHT22;3534;49.960;8.018;2023-04-03T01:31:00;9.20;99.90
6988;DHT22;3534;49.960;8.018;2023-04-03T01:33:30;9.20;99.90
6988;DHT22;3534;49.960;8.018;2023-04-03T01:35:57;9.20;99.90
6988;DHT22;3534;49.960;8.018;2023-04-03T01:38:24;9.20;99.90
6988;DHT22;3534;49.960;8.018;2023-04-03T01:40:50;9.10;99.90
6988;DHT22;3534;49.960;8.018;2023-04-03T01:43:17;9.20;99.90
6988;DHT22;3534;49.960;8.018;2023-04-03T01:45:44;9.10;99.90
6988;DHT22;3534;49.960;8.018;2023-04-03T01:48:12;9.10;99.90
6988;DHT22;3534;49.960;8.018;2023-04-03T01:50:40;9.00;99.90
6988;DHT22;3534;49.960;8.018;2023-04-03T01:53:06;9.00;99.90
6988;DHT22;3534;49.960;8.018;2023-04-03T01:55:33;9.00;99.90
6988;DHT22;3534;49.960;8.018;2023-04-03T01:58:00;9.00;99.90
6988;DHT22;3534;49.960;8.018;2023-04-03T02:00:26;9.00;99.90
6988;DHT22;3534;49.960;8.018;2023-04-03T02:02:53;9.00;99.90
6988;DHT22;3534;49.960;8.018;2023-04-03T02:05:20;9.00;99.90
6988;DHT22;3534;49.960;8.018;2023-04-03T02:07:48;9.10;99.90
6988;DHT22;3534;49.960;8.018;2023-04-03T02:10:15;9.10;99.90
6988;DHT22;3534;49.960;8.018;2023-04-03T02:12:42;9.00;99.90
6988;DHT22;3534;49.960;8.018;2023-04-03T02:15:09;9.00;99.90
6988;DHT22;3534;49.960;8.018;2023-04-03T02:17:36;9.10;99.90
6988;DHT22;3534;49.960;8.018;2023-04-03T02:20:03;9.00;99.90
6988;DHT22;3534;49.960;8.018;2023-04-03T02:22:30;9.10;99.90
6988;DHT22;3534;49.960;8.018;2023-04-03T02:24:58;9.10;99.90
6988;DHT22;3534;49.960;8.018;2023-04-03T02:27:25;9.10;99.90
6988;DHT22;3534;49.960;8.018;2023-04-03T02:29:52;9.10;99.90
6988;DHT22;3534;49.960;8.018;2023-04-03T02:32:19;9.00;99.90
6988;DHT22;3534;49.960;8.018;2023-04-03T02:34:45;9.00;99.90
6988;DHT22;3534;49.960;8.018;2023-04-03T02:37:12;9.00;99.90
6988;DHT22;3534;49.960;8.018;2023-04-03T02:39:39;9.00;99.90
6988;DHT22;3534;49.960;8.018;2023-04-03T02:42:07;9.00;99.90
6988;DHT22;3534;49.960;8.018;2023-04-03T02:44:34;9.10;99.90
6988;DHT22;3534;49.960;8.018;2023-04-03T02:47:01;9.10;99.90
6988;DHT22;3534;49.960;8.018;2023-04-03T02:49:28;9.10;99.90
6988;DHT22;3534;49.960;8.018;2023-04-03T02:51:54;9.10;99.90
6988;DHT22;3534;49.960;8.018;2023-04-03T02:54:21;9.10;99.90
6988;DHT22;3534;49.960;8.018;2023-04-03T02:56:48;9.10;99.90
6988;DHT22;3534;49.960;8.018;2023-04-03T02:59:16;9.10;99.90
6988;DHT22;3534;49.960;8.018;2023-04-03T03:01:43;9.10;99.90
6988;DHT22;3534;49.960;8.018;2023-04-03T03:04:09;9.10;99.90
6988;DHT22;3534;49.960;8.018;2023-04-03T03:06:36;9.00;99.90
6988;DHT22;3534;49.960;8.018;2023-04-03T03:09:03;9.10;99.90
6988;DHT22;3534;49.960;8.018;2023-04-03T03:11:31;9.00;99.90
6988;DHT22;3534;49.960;8.018;2023-04-03T03:13:57;9.00;99.90
6988;DHT22;3534;49.960;8.018;2023-04-03T03:16:26;9.00;99.90
6988;DHT22;3534;49.960;8.018;2023-04-03T03:18:52;9.00;99.90
6988;DHT22;3534;49.960;8.018;2023-04-03T03:21:19;9.00;99.90
6988;DHT22;3534;49.960;8.018;2023-04-03T03:23:46;9.00;99.90
6988;DHT22;3534;49.960;8.018;2023-04-03T03:26:12;9.00;99.90
6988;DHT22;3534;49.960;8.018;2023-04-03T03:28:40;8.90;99.90
6988;DHT22;3534;49.960;8.018;2023-04-03T03:31:10;9.00;99.90
6988;DHT22;3534;49.960;8.018;2023-04-03T03:33:38;8.90;99.90
6988;DHT22;3534;49.960;8.018;2023-04-03T03:36:06;8.90;99.90
6988;DHT22;3534;49.960;8.018;2023-04-03T03:38:32;8.90;99.90
6988;DHT22;3534;49.960;8.018;2023-04-03T03:40:59;8.80;99.90
6988;DHT22;3534;49.960;8.018;2023-04-03T03:43:26;8.90;99.90
6988;DHT22;3534;49.960;8.018;2023-04-03T03:45:54;8.90;99.90
6988;DHT22;3534;49.960;8.018;2023-04-03T03:48:21;8.90;99.90
6988;DHT22;3534;49.960;8.018;2023-04-03T03:50:49;8.80;99.90
6988;DHT22;3534;49.960;8.018;2023-04-03T03:53:16;8.90;99.90
6988;DHT22;3534;49.960;8.018;2023-04-03T03:55:43;8.90;99.90
6988;DHT22;3534;49.960;8.018;2023-04-03T03:58:09;8.90;99.90
6988;DHT22;3534;49.960;8.018;2023-04-03T04:00:36;8.90;99.90
6988;DHT22;3534;49.960;8.018;2023-04-03T04:03:03;8.80;99.90
6988;DHT22;3534;49.960;8.018;2023-04-03T04:05:30;8.80;99.90
6988;DHT22;3534;49.960;8.018;2023-04-03T04:07:58;8.80;99.90
6988;DHT22;3534;49.960;8.018;2023-04-03T04:10:25;8.80;99.90
6988;DHT22;3534;49.960;8.018;2023-04-03T04:12:51;8.70;99.90
6988;DHT22;3534;49.960;8.018;2023-04-03T04:15:18;8.70;99.90
6988;DHT22;3534;49.960;8.018;2023-04-03T04:17:46;8.70;99.90
6988;DHT22;3534;49.960;8.018;2023-04-03T04:20:13;8.70;99.90
6988;DHT22;3534;49.960;8.018;2023-04-03T04:22:40;8.70;99.90
6988;DHT22;3534;49.960;8.018;2023-04-03T04:25:08;8.70;99.90
6988;DHT22;3534;49.960;8.018;2023-04-03T04:27:35;8.70;99.90
6988;DHT22;3534;49.960;8.018;2023-04-03T04:30:03;8.60;99.90
6988;DHT22;3534;49.960;8.018;2023-04-03T04:32:29;8.60;99.90
6988;DHT22;3534;49.960;8.018;2023-04-03T04:34:56;8.70;99.90
6988;DHT22;3534;49.960;8.018;2023-04-03T04:37:23;8.70;99.90
6988;DHT22;3534;49.960;8.018;2023-04-03T04:39:50;8.60;99.90
6988;DHT22;3534;49.960;8.018;2023-04-03T04:42:17;8.60;99.90
6988;DHT22;3534;49.960;8.018;2023-04-03T04:44:44;8.60;99.90
6988;DHT22;3534;49.960;8.018;2023-04-03T04:47:11;8.60;99.90
6988;DHT22;3534;49.960;8.018;2023-04-03T04:49:37;8.60;99.90
6988;DHT22;3534;49.960;8.018;2023-04-03T04:52:04;8.60;99.90
6988;DHT22;3534;49.960;8.018;2023-04-03T04:54:31;8.60;99.90
6988;DHT22;3534;49.960;8.018;2023-04-03T04:56:58;8.60;99.90
6988;DHT22;3534;49.960;8.018;2023-04-03T04:59:26;8.50;99.90
6988;DHT22;3534;49.960;8.018;2023-04-03T05:01:53;8.50;99.90
6988;DHT22;3534;49.960;8.018;2023-04-03T05:04:20;8.50;99.90
6988;DHT22;3534;49.960;8.018;2023-04-03T05:06:46;8.40;99.90
6988;DHT22;3534;49.960;8.018;2023-04-03T05:09:13;8.30;99.90
6988;DHT22;3534;49.960;8.018;2023-04-03T05:11:39;8.30;99.90
6988;DHT22;3534;49.960;8.018;2023-04-03T05:14:06;8.30;99.90
6988;DHT22;3534;49.960;8.018;2023-04-03T05:16:34;8.30;99.90
6988;DHT22;3534;49.960;8.018;2023-04-03T05:19:01;8.20;99.90
6988;DHT22;3534;49.960;8.018;2023-04-03T05:21:28;8.20;99.90
6988;DHT22;3534;49.960;8.018;2023-04-03T05:23:57;8.20;99.90
6988;DHT22;3534;49.960;8.018;2023-04-03T05:26:24;8.10;99.90
6988;DHT22;3534;49.960;8.018;2023-04-03T05:28:51;8.10;99.90
6988;DHT22;3534;49.960;8.018;2023-04-03T05:31:18;8.00;99.90
6988;DHT22;3534;49.960;8.018;2023-04-03T05:33:46;8.00;99.90
6988;DHT22;3534;49.960;8.018;2023-04-03T05:36:14;8.00;99.90
6988;DHT22;3534;49.960;8.018;2023-04-03T05:38:41;8.00;99.90
6988;DHT22;3534;49.960;8.018;2023-04-03T05:41:08;8.10;99.90
6988;DHT22;3534;49.960;8.018;2023-04-03T05:43:34;8.10;99.90
6988;DHT22;3534;49.960;8.018;2023-04-03T05:46:03;8.10;99.90
6988;DHT22;3534;49.960;8.018;2023-04-03T05:48:29;8.10;99.90
6988;DHT22;3534;49.960;8.018;2023-04-03T05:50:58;8.00;99.90
6988;DHT22;3534;49.960;8.018;2023-04-03T05:53:27;8.10;99.90
6988;DHT22;3534;49.960;8.018;2023-04-03T05:55:54;8.00;99.90
6988;DHT22;3534;49.960;8.018;2023-04-03T05:58:21;8.10;99.90
6988;DHT22;3534;49.960;8.018;2023-04-03T06:00:47;8.10;99.90
6988;DHT22;3534;49.960;8.018;2023-04-03T06:03:14;7.90;99.90
6988;DHT22;3534;49.960;8.018;2023-04-03T06:05:42;8.00;99.90
6988;DHT22;3534;49.960;8.018;2023-04-03T06:08:10;8.10;99.90
6988;DHT22;3534;49.960;8.018;2023-04-03T06:10:37;8.10;99.90
6988;DHT22;3534;49.960;8.018;2023-04-03T06:13:03;8.00;99.90
6988;DHT22;3534;49.960;8.018;2023-04-03T06:15:30;8.00;99.90
6988;DHT22;3534;49.960;8.018;2023-04-03T06:17:57;8.00;99.90
6988;DHT22;3534;49.960;8.018;2023-04-03T06:20:23;8.10;99.90
6988;DHT22;3534;49.960;8.018;2023-04-03T06:22:50;8.20;99.90
6988;DHT22;3534;49.960;8.018;2023-04-03T06:25:18;8.20;99.90
6988;DHT22;3534;49.960;8.018;2023-04-03T06:27:45;8.20;99.90
6988;DHT22;3534;49.960;8.018;2023-04-03T06:30:12;8.20;99.90
6988;DHT22;3534;49.960;8.018;2023-04-03T06:32:39;8.10;99.90
6988;DHT22;3534;49.960;8.018;2023-04-03T06:35:06;8.10;99.90
6988;DHT22;3534;49.960;8.018;2023-04-03T06:37:33;8.10;99.90
6988;DHT22;3534;49.960;8.018;2023-04-03T06:40:00;8.10;99.90
6988;DHT22;3534;49.960;8.018;2023-04-03T06:42:29;8.20;99.90
6988;DHT22;3534;49.960;8.018;2023-04-03T06:44:56;8.20;99.90
6988;DHT22;3534;49.960;8.018;2023-04-03T06:47:23;8.30;99.90
6988;DHT22;3534;49.960;8.018;2023-04-03T06:49:49;8.30;99.90
6988;DHT22;3534;49.960;8.018;2023-04-03T06:52:16;8.30;99.90
6988;DHT22;3534;49.960;8.018;2023-04-03T06:54:43;8.30;99.90
6988;DHT22;3534;49.960;8.018;2023-04-03T06:57:10;8.30;99.90
6988;DHT22;3534;49.960;8.018;2023-04-03T06:59:38;8.30;99.90
6988;DHT22;3534;49.960;8.018;2023-04-03T07:02:06;8.30;99.90
6988;DHT22;3534;49.960;8.018;2023-04-03T07:04:32;8.10;99.90
6988;DHT22;3534;49.960;8.018;2023-04-03T07:06:59;8.10;99.90
6988;DHT22;3534;49.960;8.018;2023-04-03T07:09:26;8.10;99.90
6988;DHT22;3534;49.960;8.018;2023-04-03T07:11:53;8.10;99.90
6988;DHT22;3534;49.960;8.018;2023-04-03T07:14:19;8.00;99.90
6988;DHT22;3534;49.960;8.018;2023-04-03T07:16:48;8.00;99.90
6988;DHT22;3534;49.960;8.018;2023-04-03T07:19:15;8.00;99.90
6988;DHT22;3534;49.960;8.018;2023-04-03T07:21:43;8.00;99.90
6988;DHT22;3534;49.960;8.018;2023-04-03T07:24:10;8.10;99.90
6988;DHT22;3534;49.960;8.018;2023-04-03T07:26:37;8.10;99.90
6988;DHT22;3534;49.960;8.018;2023-04-03T07:29:03;8.10;99.90
6988;DHT22;3534;49.960;8.018;2023-04-03T07:31:30;8.10;99.90
6988;DHT22;3534;49.960;8.018;2023-04-03T07:33:58;8.20;99.90
6988;DHT22;3534;49.960;8.018;2023-04-03T07:36:25;8.20;99.90
6988;DHT22;3534;49.960;8.018;2023-04-03T07:38:51;8.20;99.90
6988;DHT22;3534;49.960;8.018;2023-04-03T07:41:19;8.20;99.90
6988;DHT22;3534;49.960;8.018;2023-04-03T07:43:48;8.20;99.90
6988;DHT22;3534;49.960;8.018;2023-04-03T07:46:16;8.30;99.90
6988;DHT22;3534;49.960;8.018;2023-04-03T07:48:43;8.30;99.90
6988;DHT22;3534;49.960;8.018;2023-04-03T07:51:12;8.30;99.90
6988;DHT22;3534;49.960;8.018;2023-04-03T07:53:39;8.40;99.90
6988;DHT22;3534;49.960;8.018;2023-04-03T07:56:06;8.40;99.90
6988;DHT22;3534;49.960;8.018;2023-04-03T07:58:33;8.50;99.90
6988;DHT22;3534;49.960;8.018;2023-04-03T08:01:00;8.50;99.90
6988;DHT22;3534;49.960;8.018;2023-04-03T08:03:26;8.50;99.90
6988;DHT22;3534;49.960;8.018;2023-04-03T08:05:53;8.50;99.90
6988;DHT22;3534;49.960;8.018;2023-04-03T08:08:22;8.60;99.90
6988;DHT22;3534;49.960;8.018;2023-04-03T08:10:50;8.60;99.90
6988;DHT22;3534;49.960;8.018;2023-04-03T08:13:17;8.60;99.90
6988;DHT22;3534;49.960;8.018;2023-04-03T08:15:44;8.60;99.90
6988;DHT22;3534;49.960;8.018;2023-04-03T08:18:12;8.60;99.90
6988;DHT22;3534;49.960;8.018;2023-04-03T08:20:39;8.60;99.90
6988;DHT22;3534;49.960;8.018;2023-04-03T08:23:06;8.60;99.90
6988;DHT22;3534;49.960;8.018;2023-04-03T08:25:37;8.70;99.90
6988;DHT22;3534;49.960;8.018;2023-04-03T08:28:04;8.60;99.90
6988;DHT22;3534;49.960;8.018;2023-04-03T08:30:32;8.60;99.90
6988;DHT22;3534;49.960;8.018;2023-04-03T08:33:00;8.60;99.90
6988;DHT22;3534;49.960;8.018;2023-04-03T08:35:27;8.60;99.90
6988;DHT22;3534;49.960;8.018;2023-04-03T08:37:53;8.60;99.90
6988;DHT22;3534;49.960;8.018;2023-04-03T08:40:20;8.70;99.90
6988;DHT22;3534;49.960;8.018;2023-04-03T08:42:56;8.60;99.90
6988;DHT22;3534;49.960;8.018;2023-04-03T08:45:30;8.60;99.90
6988;DHT22;3534;49.960;8.018;2023-04-03T08:48:05;8.70;99.90
6988;DHT22;3534;49.960;8.018;2023-04-03T08:50:37;8.80;99.90
6988;DHT22;3534;49.960;8.018;2023-04-03T08:53:11;8.80;99.90
6988;DHT22;3534;49.960;8.018;2023-04-03T08:55:43;8.90;99.90
6988;DHT22;3534;49.960;8.018;2023-04-03T08:58:14;9.10;99.90
6988;DHT22;3534;49.960;8.018;2023-04-03T09:00:44;9.10;99.90
6988;DHT22;3534;49.960;8.018;2023-04-03T09:03:12;9.20;99.90
6988;DHT22;3534;49.960;8.018;2023-04-03T09:05:45;9.30;99.90
6988;DHT22;3534;49.960;8.018;2023-04-03T09:08:21;9.30;99.90
6988;DHT22;3534;49.960;8.018;2023-04-03T09:10:49;9.30;99.90
6988;DHT22;3534;49.960;8.018;2023-04-03T09:13:26;9.30;99.90
6988;DHT22;3534;49.960;8.018;2023-04-03T09:15:56;9.30;99.90
6988;DHT22;3534;49.960;8.018;2023-04-03T09:18:28;9.40;99.90
6988;DHT22;3534;49.960;8.018;2023-04-03T09:21:04;9.40;99.90
6988;DHT22;3534;49.960;8.018;2023-04-03T09:23:38;9.50;99.90
6988;DHT22;3534;49.960;8.018;2023-04-03T09:26:13;9.50;99.90
6988;DHT22;3534;49.960;8.018;2023-04-03T09:28:42;9.50;99.90
6988;DHT22;3534;49.960;8.018;2023-04-03T09:31:17;9.50;99.90
6988;DHT22;3534;49.960;8.018;2023-04-03T09:33:45;9.40;99.90
6988;DHT22;3534;49.960;8.018;2023-04-03T09:36:12;9.50;99.90
6988;DHT22;3534;49.960;8.018;2023-04-03T09:38:39;9.40;99.90
6988;DHT22;3534;49.960;8.018;2023-04-03T09:41:07;9.40;99.90
6988;DHT22;3534;49.960;8.018;2023-04-03T09:43:35;9.40;99.90
6988;DHT22;3534;49.960;8.018;2023-04-03T09:46:24;9.50;99.90
6988;DHT22;3534;49.960;8.018;2023-04-03T09:48:52;9.40;99.90
6988;DHT22;3534;49.960;8.018;2023-04-03T09:51:25;9.50;99.90
6988;DHT22;3534;49.960;8.018;2023-04-03T09:53:52;9.50;99.90
6988;DHT22;3534;49.960;8.018;2023-04-03T09:56:24;9.50;99.90
6988;DHT22;3534;49.960;8.018;2023-04-03T09:58:52;9.60;99.90
6988;DHT22;3534;49.960;8.018;2023-04-03T10:01:35;9.70;99.90
6988;DHT22;3534;49.960;8.018;2023-04-03T10:04:06;9.80;99.90
6988;DHT22;3534;49.960;8.018;2023-04-03T10:06:35;9.70;99.90
6988;DHT22;3534;49.960;8.018;2023-04-03T10:09:05;9.70;99.90
6988;DHT22;3534;49.960;8.018;2023-04-03T10:11:33;9.70;99.90
6988;DHT22;3534;49.960;8.018;2023-04-03T10:14:01;9.80;99.90
6988;DHT22;3534;49.960;8.018;2023-04-03T10:16:36;9.80;99.90
6988;DHT22;3534;49.960;8.018;2023-04-03T10:19:19;9.90;99.90
6988;DHT22;3534;49.960;8.018;2023-04-03T10:21:53;9.90;99.90
6988;DHT22;3534;49.960;8.018;2023-04-03T10:24:27;10.00;99.90
6988;DHT22;3534;49.960;8.018;2023-04-03T10:26:58;10.10;99.90
6988;DHT22;3534;49.960;8.018;2023-04-03T10:29:39;10.10;99.90
6988;DHT22;3534;49.960;8.018;2023-04-03T10:32:26;10.10;99.90
6988;DHT22;3534;49.960;8.018;2023-04-03T10:35:02;10.10;99.90
6988;DHT22;3534;49.960;8.018;2023-04-03T10:37:47;10.00;99.90
6988;DHT22;3534;49.960;8.018;2023-04-03T10:40:24;10.10;99.90
6988;DHT22;3534;49.960;8.018;2023-04-03T10:42:57;10.10;99.90
6988;DHT22;3534;49.960;8.018;2023-04-03T10:45:31;10.10;99.90
6988;DHT22;3534;49.960;8.018;2023-04-03T10:48:11;10.00;99.90
6988;DHT22;3534;49.960;8.018;2023-04-03T10:50:44;10.00;99.90
6988;DHT22;3534;49.960;8.018;2023-04-03T10:53:21;9.90;99.90
6988;DHT22;3534;49.960;8.018;2023-04-03T10:55:55;10.00;99.90
6988;DHT22;3534;49.960;8.018;2023-04-03T10:58:29;10.10;99.90
6988;DHT22;3534;49.960;8.018;2023-04-03T11:01:01;10.10;99.90
6988;DHT22;3534;49.960;8.018;2023-04-03T11:03:34;10.10;99.90
6988;DHT22;3534;49.960;8.018;2023-04-03T11:06:05;10.10;99.90
6988;DHT22;3534;49.960;8.018;2023-04-03T11:08:38;10.20;99.90
6988;DHT22;3534;49.960;8.018;2023-04-03T11:11:08;10.30;99.90
6988;DHT22;3534;49.960;8.018;2023-04-03T11:13:40;10.30;99.90
6988;DHT22;3534;49.960;8.018;2023-04-03T11:16:08;10.40;99.90
6988;DHT22;3534;49.960;8.018;2023-04-03T11:18:41;10.40;99.90
6988;DHT22;3534;49.960;8.018;2023-04-03T11:21:14;10.40;99.90
6988;DHT22;3534;49.960;8.018;2023-04-03T11:23:45;10.40;99.90
6988;DHT22;3534;49.960;8.018;2023-04-03T11:26:15;10.40;99.90
6988;DHT22;3534;49.960;8.018;2023-04-03T11:28:43;10.50;99.90
6988;DHT22;3534;49.960;8.018;2023-04-03T11:31:19;10.50;99.90
6988;DHT22;3534;49.960;8.018;2023-04-03T11:33:58;10.60;99.90
6988;DHT22;3534;49.960;8.018;2023-04-03T11:36:32;10.60;99.90
6988;DHT22;3534;49.960;8.018;2023-04-03T11:39:06;10.70;99.90
6988;DHT22;3534;49.960;8.018;2023-04-03T11:41:34;10.70;99.90
6988;DHT22;3534;49.960;8.018;2023-04-03T11:44:03;10.80;99.90
6988;DHT22;3534;49.960;8.018;2023-04-03T11:46:54;10.90;99.90
6988;DHT22;3534;49.960;8.018;2023-04-03T11:49:54;11.00;99.90
6988;DHT22;3534;49.960;8.018;2023-04-03T11:55:58;11.30;99.90
6988;DHT22;3534;49.960;8.018;2023-04-03T11:58:26;11.50;99.90
6988;DHT22;3534;49.960;8.018;2023-04-03T12:01:05;11.70;99.90
6988;DHT22;3534;49.960;8.018;2023-04-03T12:03:58;11.90;99.90
6988;DHT22;3534;49.960;8.018;2023-04-03T12:10:02;12.50;99.90
6988;DHT22;3534;49.960;8.018;2023-04-03T12:12:41;12.70;99.90
6988;DHT22;3534;49.960;8.018;2023-04-03T12:18:40;13.00;99.90
6988;DHT22;3534;49.960;8.018;2023-04-03T12:21:07;13.20;99.90
6988;DHT22;3534;49.960;8.018;2023-04-03T12:23:35;13.50;99.90
6988;DHT22;3534;49.960;8.018;2023-04-03T12:26:20;13.90;99.90
6988;DHT22;3534;49.960;8.018;2023-04-03T12:28:48;14.30;99.90
6988;DHT22;3534;49.960;8.018;2023-04-03T12:31:16;14.70;99.90
6988;DHT22;3534;49.960;8.018;2023-04-03T12:33:59;15.00;99.90
6988;DHT22;3534;49.960;8.018;2023-04-03T12:36:37;15.00;99.90
6988;DHT22;3534;49.960;8.018;2023-04-03T12:39:13;14.90;99.90
6988;DHT22;3534;49.960;8.018;2023-04-03T12:41:50;15.20;99.90
6988;DHT22;3534;49.960;8.018;2023-04-03T12:44:38;15.40;99.90
6988;DHT22;3534;49.960;8.018;2023-04-03T12:47:21;15.40;99.40
6988;DHT22;3534;49.960;8.018;2023-04-03T12:49:49;15.70;99.90
6988;DHT22;3534;49.960;8.018;2023-04-03T12:52:25;16.00;99.90
6988;DHT22;3534;49.960;8.018;2023-04-03T12:54:55;16.20;99.90
6988;DHT22;3534;49.960;8.018;2023-04-03T12:57:26;16.50;99.90
6988;DHT22;3534;49.960;8.018;2023-04-03T12:59:54;16.70;97.10
6988;DHT22;3534;49.960;8.018;2023-04-03T13:02:23;16.80;96.90
6988;DHT22;3534;49.960;8.018;2023-04-03T13:04:52;16.90;94.30
6988;DHT22;3534;49.960;8.018;2023-04-03T13:07:22;17.20;97.70
6988;DHT22;3534;49.960;8.018;2023-04-03T13:09:59;17.60;99.90
6988;DHT22;3534;49.960;8.018;2023-04-03T13:12:27;17.90;97.40
6988;DHT22;3534;49.960;8.018;2023-04-03T13:14:56;18.30;99.90
6988;DHT22;3534;49.960;8.018;2023-04-03T13:17:24;18.30;97.60
6988;DHT22;3534;49.960;8.018;2023-04-03T13:19:51;18.40;94.90
6988;DHT22;3534;49.960;8.018;2023-04-03T13:22:32;18.50;96.00
6988;DHT22;3534;49.960;8.018;2023-04-03T13:25:07;18.80;99.90
6988;DHT22;3534;49.960;8.018;2023-04-03T13:27:38;18.90;99.90
6988;DHT22;3534;49.960;8.018;2023-04-03T13:30:22;19.10;99.90
6988;DHT22;3534;49.960;8.018;2023-04-03T13:32:50;19.00;99.90
6988;DHT22;3534;49.960;8.018;2023-04-03T13:35:26;19.20;99.10
6988;DHT22;3534;49.960;8.018;2023-04-03T13:37:58;19.40;99.90
6988;DHT22;3534;49.960;8.018;2023-04-03T13:40:25;19.50;99.90
6988;DHT22;3534;49.960;8.018;2023-04-03T13:43:02;19.70;99.90
6988;DHT22;3534;49.960;8.018;2023-04-03T13:45:30;19.90;99.90
6988;DHT22;3534;49.960;8.018;2023-04-03T13:48:14;20.20;99.90
6988;DHT22;3534;49.960;8.018;2023-04-03T13:50:57;20.50;96.40
6988;DHT22;3534;49.960;8.018;2023-04-03T13:53:26;20.80;99.90
6988;DHT22;3534;49.960;8.018;2023-04-03T13:55:57;21.00;99.90
6988;DHT22;3534;49.960;8.018;2023-04-03T13:58:27;21.30;90.70
6988;DHT22;3534;49.960;8.018;2023-04-03T14:00:55;21.50;64.40
6988;DHT22;3534;49.960;8.018;2023-04-03T14:03:24;21.70;59.60
6988;DHT22;3534;49.960;8.018;2023-04-03T14:05:53;21.90;56.90
6988;DHT22;3534;49.960;8.018;2023-04-03T14:08:21;21.90;52.80
6988;DHT22;3534;49.960;8.018;2023-04-03T14:10:48;22.10;57.50
6988;DHT22;3534;49.960;8.018;2023-04-03T14:13:17;22.10;57.60
6988;DHT22;3534;49.960;8.018;2023-04-03T14:15:47;22.20;50.40
6988;DHT22;3534;49.960;8.018;2023-04-03T14:18:17;22.30;49.00
6988;DHT22;3534;49.960;8.018;2023-04-03T14:20:45;22.40;46.80
6988;DHT22;3534;49.960;8.018;2023-04-03T14:23:12;22.50;50.90
6988;DHT22;3534;49.960;8.018;2023-04-03T14:25:40;22.70;50.50
6988;DHT22;3534;49.960;8.018;2023-04-03T14:28:15;23.10;54.00
6988;DHT22;3534;49.960;8.018;2023-04-03T14:30:42;23.30;46.70
6988;DHT22;3534;49.960;8.018;2023-04-03T14:33:13;23.40;51.10
6988;DHT22;3534;49.960;8.018;2023-04-03T14:35:40;23.40;44.30
6988;DHT22;3534;49.960;8.018;2023-04-03T14:38:16;23.30;42.90
6988;DHT22;3534;49.960;8.018;2023-04-03T14:40:46;23.30;43.20
6988;DHT22;3534;49.960;8.018;2023-04-03T14:43:13;23.40;43.70
6988;DHT22;3534;49.960;8.018;2023-04-03T14:45:40;23.30;42.10
6988;DHT22;3534;49.960;8.018;2023-04-03T14:48:10;23.40;42.40
6988;DHT22;3534;49.960;8.018;2023-04-03T14:50:39;23.50;41.60
6988;DHT22;3534;49.960;8.018;2023-04-03T14:53:06;23.60;43.20
6988;DHT22;3534;49.960;8.018;2023-04-03T14:55:33;23.60;41.10
6988;DHT22;3534;49.960;8.018;2023-04-03T14:58:00;23.50;43.40
6988;DHT22;3534;49.960;8.018;2023-04-03T15:00:27;23.80;41.40
6988;DHT22;3534;49.960;8.018;2023-04-03T15:02:54;23.90;41.30
6988;DHT22;3534;49.960;8.018;2023-04-03T15:05:21;24.00;40.90
6988;DHT22;3534;49.960;8.018;2023-04-03T15:07:52;24.00;39.90
6988;DHT22;3534;49.960;8.018;2023-04-03T15:10:20;23.80;39.40
6988;DHT22;3534;49.960;8.018;2023-04-03T15:12:48;23.60;39.40
6988;DHT22;3534;49.960;8.018;2023-04-03T15:15:16;23.50;39.00
6988;DHT22;3534;49.960;8.018;2023-04-03T15:17:45;23.70;39.30
6988;DHT22;3534;49.960;8.018;2023-04-03T15:20:16;23.70;43.00
6988;DHT22;3534;49.960;8.018;2023-04-03T15:22:43;23.80;41.60
6988;DHT22;3534;49.960;8.018;2023-04-03T15:25:11;23.90;46.80
6988;DHT22;3534;49.960;8.018;2023-04-03T15:27:38;23.80;43.60
6988;DHT22;3534;49.960;8.018;2023-04-03T15:30:07;23.80;43.80
6988;DHT22;3534;49.960;8.018;2023-04-03T15:32:34;23.90;48.30
6988;DHT22;3534;49.960;8.018;2023-04-03T15:35:01;23.90;50.20
6988;DHT22;3534;49.960;8.018;2023-04-03T15:37:28;23.90;41.70
6988;DHT22;3534;49.960;8.018;2023-04-03T15:39:55;24.00;65.00
6988;DHT22;3534;49.960;8.018;2023-04-03T15:42:23;23.90;61.10
6988;DHT22;3534;49.960;8.018;2023-04-03T15:44:50;24.00;66.80
6988;DHT22;3534;49.960;8.018;2023-04-03T15:47:16;23.90;72.80
6988;DHT22;3534;49.960;8.018;2023-04-03T15:49:43;23.90;58.60
6988;DHT22;3534;49.960;8.018;2023-04-03T15:52:10;24.00;50.40
6988;DHT22;3534;49.960;8.018;2023-04-03T15:54:36;23.90;50.30
6988;DHT22;3534;49.960;8.018;2023-04-03T15:57:03;24.00;52.10
6988;DHT22;3534;49.960;8.018;2023-04-03T15:59:31;24.00;41.50
6988;DHT22;3534;49.960;8.018;2023-04-03T16:01:58;23.80;42.70
6988;DHT22;3534;49.960;8.018;2023-04-03T16:04:26;23.60;41.20
6988;DHT22;3534;49.960;8.018;2023-04-03T16:06:53;23.40;41.10
6988;DHT22;3534;49.960;8.018;2023-04-03T16:09:19;23.10;41.80
6988;DHT22;3534;49.960;8.018;2023-04-03T16:11:46;23.10;43.10
6988;DHT22;3534;49.960;8.018;2023-04-03T16:14:13;23.00;62.40
6988;DHT22;3534;49.960;8.018;2023-04-03T16:16:41;23.00;78.20
6988;DHT22;3534;49.960;8.018;2023-04-03T16:19:08;22.90;59.90
6988;DHT22;3534;49.960;8.018;2023-04-03T16:21:35;22.90;84.10
6988;DHT22;3534;49.960;8.018;2023-04-03T16:24:02;22.80;88.30
6988;DHT22;3534;49.960;8.018;2023-04-03T16:26:29;22.60;86.10
6988;DHT22;3534;49.960;8.018;2023-04-03T16:28:55;22.30;60.30
6988;DHT22;3534;49.960;8.018;2023-04-03T16:31:23;22.00;61.10
6988;DHT22;3534;49.960;8.018;2023-04-03T16:33:51;21.70;89.80
6988;DHT22;3534;49.960;8.018;2023-04-03T16:36:18;21.30;65.80
6988;DHT22;3534;49.960;8.018;2023-04-03T16:38:45;20.80;58.10